createdAt,value
2018-01-03T00:00:46.734Z,97.40
2018-01-03T00:02:24.659Z,97.40
2018-01-03T00:04:01.323Z,97.50
2018-01-03T00:05:38.029Z,97.40
2018-01-03T00:07:15.278Z,97.30
2018-01-03T00:08:54.030Z,97.60
2018-01-03T00:10:30.777Z,97.60
2018-01-03T00:12:08.298Z,97.60
2018-01-03T00:13:45.289Z,97.60
2018-01-03T00:15:24.474Z,97.20
2018-01-03T00:17:02.061Z,96.80
2018-01-03T00:18:39.580Z,96.80
2018-01-03T00:20:16.129Z,96.80
2018-01-03T00:21:53.634Z,96.40
2018-01-03T00:23:30.161Z,95.70
2018-01-03T00:25:07.174Z,95.60
2018-01-03T00:26:43.933Z,95.60
2018-01-03T00:28:20.788Z,96.90
2018-01-03T00:29:57.693Z,96.90
2018-01-03T00:31:34.602Z,96.20
2018-01-03T00:33:11.968Z,95.80
2018-01-03T00:34:49.023Z,95.40
2018-01-03T00:36:25.768Z,95.50
2018-01-03T00:38:02.540Z,95.60
2018-01-03T00:39:39.836Z,95.60
2018-01-03T00:41:17.267Z,94.50
2018-01-03T00:42:55.421Z,94.50
2018-01-03T00:44:32.366Z,94.50
2018-01-03T00:46:17.711Z,94.60
2018-01-03T00:47:54.856Z,93.80
2018-01-03T00:49:31.387Z,93.50
2018-01-03T00:51:08.458Z,93.50
2018-01-03T00:52:47.601Z,93.40
2018-01-03T00:54:25.466Z,93.50
2018-01-03T00:56:02.325Z,93.80
2018-01-03T00:57:40.321Z,94.50
2018-01-03T00:59:17.091Z,94.50
2018-01-03T01:00:54.285Z,95.10
2018-01-03T01:02:30.998Z,96.20
2018-01-03T01:04:08.279Z,95.30
2018-01-03T01:05:48.224Z,94.70
2018-01-03T01:07:25.018Z,94.30
2018-01-03T01:09:01.925Z,94.40
2018-01-03T01:10:39.063Z,94.20
2018-01-03T01:12:16.401Z,94.10
2018-01-03T01:13:53.144Z,94.60
2018-01-03T01:15:29.928Z,95.30
2018-01-03T01:17:07.850Z,94.80
2018-01-03T01:18:45.604Z,94.30
2018-01-03T01:20:22.261Z,94.30
2018-01-03T01:21:58.923Z,94.20
2018-01-03T01:23:36.404Z,94.10
2018-01-03T01:25:13.417Z,94.20
2018-01-03T01:26:51.266Z,95.50
2018-01-03T01:28:28.044Z,96.90
2018-01-03T01:30:10.135Z,95.70
2018-01-03T01:31:47.701Z,95.10
2018-01-03T01:33:25.614Z,94.80
2018-01-03T01:35:03.037Z,95.00
2018-01-03T01:36:39.915Z,95.00
2018-01-03T01:38:16.682Z,95.40
2018-01-03T01:39:53.509Z,96.30
2018-01-03T01:41:31.339Z,98.50
2018-01-03T01:43:08.383Z,98.10
2018-01-03T01:44:45.195Z,96.40
2018-01-03T01:46:22.072Z,95.50
2018-01-03T01:47:59.395Z,97.30
2018-01-03T01:49:36.740Z,97.20
2018-01-03T01:51:13.670Z,97.70
2018-01-03T01:52:51.166Z,99.90
2018-01-03T01:54:28.143Z,99.90
2018-01-03T01:56:05.527Z,99.20
2018-01-03T01:57:42.408Z,98.30
2018-01-03T01:59:19.106Z,98.10
2018-01-03T02:00:56.136Z,99.60
2018-01-03T02:02:33.899Z,99.90
2018-01-03T02:04:10.372Z,99.90
2018-01-03T02:05:47.829Z,99.90
2018-01-03T02:07:24.549Z,99.90
2018-01-03T02:09:02.189Z,99.90
2018-01-03T02:10:39.034Z,99.90
2018-01-03T02:12:16.426Z,99.90
2018-01-03T02:13:53.857Z,99.90
2018-01-03T02:15:38.005Z,99.90
2018-01-03T02:17:15.257Z,99.90
2018-01-03T02:18:52.825Z,99.90
2018-01-03T02:20:30.234Z,99.90
2018-01-03T02:22:10.085Z,99.90
2018-01-03T02:23:46.900Z,99.90
2018-01-03T02:25:24.429Z,99.60
2018-01-03T02:27:01.104Z,99.60
2018-01-03T02:28:38.634Z,99.90
2018-01-03T02:30:17.439Z,99.90
2018-01-03T02:31:53.919Z,99.90
2018-01-03T02:33:30.636Z,99.90
2018-01-03T02:35:08.400Z,99.90
2018-01-03T02:36:45.897Z,99.90
2018-01-03T02:38:34.213Z,99.90
2018-01-03T02:40:11.325Z,99.90
2018-01-03T02:41:48.443Z,99.80
2018-01-03T02:43:27.110Z,98.90
2018-01-03T02:45:03.926Z,98.90
2018-01-03T02:46:41.191Z,99.80
2018-01-03T02:48:17.915Z,99.50
2018-01-03T02:49:54.877Z,99.90
2018-01-03T02:51:32.473Z,99.70
2018-01-03T02:53:10.346Z,99.90
2018-01-03T02:54:46.989Z,99.90
2018-01-03T02:56:23.970Z,99.90
2018-01-03T02:58:00.911Z,99.90
2018-01-03T02:59:38.511Z,99.90
2018-01-03T03:01:15.824Z,99.90
2018-01-03T03:02:53.691Z,99.50
2018-01-03T03:04:30.369Z,99.70
2018-01-03T03:06:07.561Z,98.80
2018-01-03T03:07:53.759Z,98.70
2018-01-03T03:09:30.728Z,99.10
2018-01-03T03:11:07.406Z,98.80
2018-01-03T03:12:44.747Z,98.60
2018-01-03T03:14:26.062Z,98.50
2018-01-03T03:16:02.762Z,98.40
2018-01-03T03:17:39.346Z,98.60
2018-01-03T03:19:16.355Z,98.30
2018-01-03T03:20:54.721Z,99.00
2018-01-03T03:22:31.371Z,99.00
2018-01-03T03:24:08.142Z,99.90
2018-01-03T03:25:45.243Z,99.90
2018-01-03T03:27:22.062Z,99.90
2018-01-03T03:28:59.156Z,99.90
2018-01-03T03:30:37.544Z,99.50
2018-01-03T03:32:24.830Z,99.50
2018-01-03T03:34:01.596Z,99.90
2018-01-03T03:35:38.344Z,99.90
2018-01-03T03:37:15.020Z,99.90
2018-01-03T03:38:52.452Z,99.90
2018-01-03T03:40:29.183Z,99.90
2018-01-03T03:42:05.885Z,99.90
2018-01-03T03:43:42.611Z,99.90
2018-01-03T03:45:24.462Z,99.80
2018-01-03T03:47:01.512Z,99.90
2018-01-03T03:48:38.315Z,99.70
2018-01-03T03:50:14.990Z,99.20
2018-01-03T03:51:53.282Z,99.60
2018-01-03T03:53:30.039Z,99.60
2018-01-03T03:55:07.733Z,99.90
2018-01-03T03:56:44.624Z,99.90
2018-01-03T03:58:21.857Z,99.90
2018-01-03T03:59:59.269Z,99.90
2018-01-03T04:01:37.425Z,99.90
2018-01-03T04:03:14.152Z,99.90
2018-01-03T04:04:51.595Z,99.90
2018-01-03T04:06:29.387Z,99.90
2018-01-03T04:08:11.272Z,99.90
2018-01-03T04:09:47.893Z,99.90
2018-01-03T04:11:25.025Z,99.90
2018-01-03T04:13:01.673Z,99.90
2018-01-03T04:14:38.440Z,99.90
2018-01-03T04:16:15.191Z,99.90
2018-01-03T04:17:52.315Z,99.90
2018-01-03T04:19:28.986Z,99.90
2018-01-03T04:21:05.529Z,99.90
2018-01-03T04:22:43.278Z,99.90
2018-01-03T04:24:19.834Z,99.90
2018-01-03T04:25:56.310Z,99.90
2018-01-03T04:27:33.144Z,99.90
2018-01-03T04:29:10.508Z,99.90
2018-01-03T04:30:47.543Z,95.90
2018-01-03T04:32:24.642Z,95.10
2018-01-03T04:34:01.465Z,94.20
2018-01-03T04:35:39.656Z,93.80
2018-01-03T04:37:16.260Z,94.80
2018-01-03T04:38:52.937Z,94.50
2018-01-03T04:40:30.661Z,95.60
2018-01-03T04:42:07.608Z,94.80
2018-01-03T04:43:44.231Z,93.90
2018-01-03T04:45:21.195Z,94.10
2018-01-03T04:47:00.698Z,93.70
2018-01-03T04:48:38.098Z,93.50
2018-01-03T04:50:15.010Z,93.00
2018-01-03T04:51:51.627Z,91.90
2018-01-03T04:53:29.226Z,90.10
2018-01-03T04:55:06.566Z,90.10
2018-01-03T04:56:43.651Z,90.80
2018-01-03T04:58:20.388Z,90.30
2018-01-03T04:59:57.022Z,90.20
2018-01-03T05:01:34.279Z,90.30
2018-01-03T05:03:10.886Z,90.50
2018-01-03T05:04:48.473Z,90.20
2018-01-03T05:06:25.063Z,90.20
2018-01-03T05:08:03.031Z,90.60
2018-01-03T05:09:51.839Z,90.20
2018-01-03T05:11:29.257Z,90.20
2018-01-03T05:13:05.832Z,90.20
2018-01-03T05:14:42.966Z,89.70
2018-01-03T05:16:20.701Z,89.80
2018-01-03T05:17:57.267Z,89.80
2018-01-03T05:19:34.113Z,89.50
2018-01-03T05:21:11.417Z,89.30
2018-01-03T05:22:48.289Z,89.30
2018-01-03T05:24:25.599Z,87.70
2018-01-03T05:26:02.500Z,89.40
2018-01-03T05:27:39.442Z,89.60
2018-01-03T05:29:16.538Z,89.10
2018-01-03T05:30:53.160Z,89.60
2018-01-03T05:32:30.428Z,89.20
2018-01-03T05:34:07.370Z,89.10
2018-01-03T05:35:43.906Z,90.50
2018-01-03T05:37:20.799Z,90.60
2018-01-03T05:38:57.853Z,90.00
2018-01-03T05:40:34.500Z,91.10
2018-01-03T05:42:11.394Z,91.00
2018-01-03T05:43:48.087Z,91.20
2018-01-03T05:45:27.685Z,92.00
2018-01-03T05:47:04.809Z,91.60
2018-01-03T05:48:45.964Z,91.00
2018-01-03T05:50:22.766Z,90.60
2018-01-03T05:52:00.272Z,91.00
2018-01-03T05:53:38.026Z,91.30
2018-01-03T05:55:14.689Z,91.30
2018-01-03T05:56:52.065Z,91.10
2018-01-03T05:58:28.572Z,91.20
2018-01-03T06:00:06.161Z,90.90
2018-01-03T06:01:57.636Z,91.40
2018-01-03T06:03:34.295Z,91.70
2018-01-03T06:05:10.904Z,91.80
2018-01-03T06:06:48.383Z,91.80
2018-01-03T06:08:25.468Z,91.80
2018-01-03T06:10:02.035Z,91.70
2018-01-03T06:11:39.664Z,91.70
2018-01-03T06:13:17.021Z,92.00
2018-01-03T06:14:54.888Z,92.20
2018-01-03T06:16:32.217Z,92.20
2018-01-03T06:18:10.428Z,92.50
2018-01-03T06:19:47.745Z,91.90
2018-01-03T06:21:24.339Z,91.90
2018-01-03T06:23:01.158Z,92.10
2018-01-03T06:24:38.296Z,91.60
2018-01-03T06:26:14.906Z,91.40
2018-01-03T06:27:51.955Z,90.70
2018-01-03T06:29:29.383Z,90.90
2018-01-03T06:31:06.471Z,90.80
2018-01-03T06:32:43.180Z,90.90
2018-01-03T06:34:19.700Z,90.90
2018-01-03T06:35:56.460Z,90.60
2018-01-03T06:37:33.127Z,90.00
2018-01-03T06:39:22.145Z,89.10
2018-01-03T06:40:58.703Z,88.30
2018-01-03T06:42:35.931Z,90.10
2018-01-03T06:44:12.573Z,88.60
2018-01-03T06:45:49.828Z,88.10
2018-01-03T06:47:27.165Z,87.70
2018-01-03T06:49:04.476Z,87.70
2018-01-03T06:50:41.181Z,88.20
2018-01-03T06:52:17.795Z,87.90
2018-01-03T06:53:54.445Z,88.40
2018-01-03T06:55:32.166Z,85.80
2018-01-03T06:57:08.781Z,85.80
2018-01-03T06:58:45.469Z,86.80
2018-01-03T07:00:30.714Z,86.60
2018-01-03T07:02:07.737Z,87.90
2018-01-03T07:03:45.148Z,89.80
2018-01-03T07:05:21.746Z,89.80
2018-01-03T07:06:58.610Z,90.10
2018-01-03T07:08:35.821Z,90.60
2018-01-03T07:10:12.379Z,89.30
2018-01-03T07:11:48.953Z,89.80
2018-01-03T07:13:25.879Z,89.00
2018-01-03T07:15:03.048Z,88.90
2018-01-03T07:16:39.874Z,88.20
2018-01-03T07:18:17.166Z,88.50
2018-01-03T07:19:53.772Z,87.20
2018-01-03T07:21:30.935Z,87.30
2018-01-03T07:23:07.648Z,87.30
2018-01-03T07:24:44.284Z,82.10
2018-01-03T07:26:21.133Z,88.60
2018-01-03T07:27:58.866Z,94.10
2018-01-03T07:29:36.617Z,94.10
2018-01-03T07:31:14.357Z,94.80
2018-01-03T07:32:52.403Z,95.80
2018-01-03T07:34:29.915Z,97.30
2018-01-03T07:36:07.355Z,96.70
2018-01-03T07:37:44.011Z,96.70
2018-01-03T07:39:20.540Z,95.50
2018-01-03T07:40:57.604Z,95.70
2018-01-03T07:42:34.165Z,95.90
2018-01-03T07:44:11.000Z,94.70
2018-01-03T07:45:47.847Z,94.70
2018-01-03T07:47:26.753Z,93.30
2018-01-03T07:49:03.569Z,93.30
2018-01-03T07:50:40.060Z,92.70
2018-01-03T07:52:18.077Z,92.70
2018-01-03T07:53:54.556Z,92.80
2018-01-03T07:55:31.984Z,92.40
2018-01-03T07:57:08.648Z,92.50
2018-01-03T07:58:45.887Z,92.10
2018-01-03T08:00:30.196Z,92.10
2018-01-03T08:02:06.752Z,92.20
2018-01-03T08:03:43.313Z,91.40
2018-01-03T08:05:20.548Z,90.50
2018-01-03T08:06:57.661Z,90.40
2018-01-03T08:08:35.236Z,90.60
2018-01-03T08:10:12.968Z,90.50
2018-01-03T08:11:50.375Z,91.10
2018-01-03T08:13:27.171Z,91.10
2018-01-03T08:15:03.999Z,91.70
2018-01-03T08:16:41.604Z,90.50
2018-01-03T08:18:18.793Z,90.60
2018-01-03T08:19:55.825Z,90.60
2018-01-03T08:21:33.425Z,90.20
2018-01-03T08:23:16.585Z,90.10
2018-01-03T08:24:53.043Z,90.10
2018-01-03T08:26:30.261Z,90.10
2018-01-03T08:28:06.799Z,88.80
2018-01-03T08:29:43.512Z,88.50
2018-01-03T08:31:21.108Z,88.30
2018-01-03T08:32:58.420Z,88.20
2018-01-03T08:34:35.628Z,86.70
2018-01-03T08:36:22.462Z,86.70
2018-01-03T08:37:59.095Z,86.80
2018-01-03T08:39:35.602Z,86.80
2018-01-03T08:41:12.138Z,86.40
2018-01-03T08:42:49.067Z,86.60
2018-01-03T08:44:26.508Z,85.10
2018-01-03T08:46:03.193Z,85.90
2018-01-03T08:47:39.708Z,84.60
2018-01-03T08:49:17.038Z,84.50
2018-01-03T08:50:54.191Z,83.80
2018-01-03T08:52:30.668Z,83.40
2018-01-03T08:54:07.185Z,83.80
2018-01-03T08:55:43.830Z,83.40
2018-01-03T08:57:20.835Z,82.80
2018-01-03T08:58:57.768Z,82.20
2018-01-03T09:00:34.666Z,81.70
2018-01-03T09:02:12.007Z,82.40
2018-01-03T09:03:48.986Z,81.30
2018-01-03T09:05:25.648Z,82.40
2018-01-03T09:07:02.958Z,81.80
2018-01-03T09:08:39.729Z,81.80
2018-01-03T09:10:18.140Z,80.30
2018-01-03T09:11:55.429Z,80.80
2018-01-03T09:13:32.736Z,81.40
2018-01-03T09:15:09.487Z,81.40
2018-01-03T09:16:48.054Z,80.00
2018-01-03T09:18:24.537Z,80.00
2018-01-03T09:20:01.056Z,80.80
2018-01-03T09:21:37.693Z,80.30
2018-01-03T09:23:15.603Z,79.40
2018-01-03T09:24:52.329Z,80.00
2018-01-03T09:26:28.944Z,84.10
2018-01-03T09:28:06.663Z,84.30
2018-01-03T09:29:44.317Z,84.70
2018-01-03T09:31:20.964Z,84.70
2018-01-03T09:32:57.613Z,86.30
2018-01-03T09:34:34.272Z,87.70
2018-01-03T09:36:11.606Z,85.80
2018-01-03T09:37:50.040Z,84.70
2018-01-03T09:39:26.666Z,84.30
2018-01-03T09:41:03.577Z,81.40
2018-01-03T09:42:40.936Z,81.60
2018-01-03T09:44:17.612Z,81.50
2018-01-03T09:45:54.480Z,82.30
2018-01-03T09:47:31.213Z,82.80
2018-01-03T09:49:09.065Z,83.30
2018-01-03T09:50:46.416Z,82.90
2018-01-03T09:52:23.012Z,82.90
2018-01-03T09:53:59.700Z,82.40
2018-01-03T09:55:36.722Z,84.20
2018-01-03T09:57:13.181Z,84.40
2018-01-03T09:58:49.761Z,83.50
2018-01-03T10:00:27.789Z,82.40
2018-01-03T10:02:04.641Z,83.70
2018-01-03T10:03:41.202Z,83.40
2018-01-03T10:05:18.401Z,82.00
2018-01-03T10:06:54.965Z,82.90
2018-01-03T10:08:32.905Z,82.60
2018-01-03T10:10:09.510Z,81.70
2018-01-03T10:11:46.918Z,81.20
2018-01-03T10:13:23.551Z,81.30
2018-01-03T10:15:00.800Z,80.50
2018-01-03T10:16:37.499Z,80.30
2018-01-03T10:18:14.585Z,79.40
2018-01-03T10:19:51.146Z,79.10
2018-01-03T10:21:28.044Z,78.60
2018-01-03T10:23:04.712Z,77.60
2018-01-03T10:24:41.482Z,77.00
2018-01-03T10:26:18.770Z,76.90
2018-01-03T10:27:56.572Z,77.30
2018-01-03T10:29:33.850Z,77.10
2018-01-03T10:31:10.458Z,77.10
2018-01-03T10:32:47.144Z,77.70
2018-01-03T10:34:24.114Z,76.40
2018-01-03T10:36:00.708Z,76.20
2018-01-03T10:37:37.256Z,76.60
2018-01-03T10:39:13.796Z,75.60
2018-01-03T10:40:50.953Z,76.70
2018-01-03T10:42:28.261Z,74.20
2018-01-03T10:44:09.861Z,74.20
2018-01-03T10:45:47.223Z,74.20
2018-01-03T10:47:24.797Z,75.80
2018-01-03T10:49:02.210Z,75.80
2018-01-03T10:50:38.864Z,75.60
2018-01-03T10:52:15.594Z,73.70
2018-01-03T10:53:52.883Z,73.10
2018-01-03T10:55:29.438Z,73.80
2018-01-03T10:57:06.293Z,73.40
2018-01-03T10:58:42.919Z,75.90
2018-01-03T11:00:20.414Z,73.80
2018-01-03T11:01:57.771Z,72.50
2018-01-03T11:03:35.202Z,72.50
2018-01-03T11:05:11.730Z,71.50
2018-01-03T11:06:48.767Z,72.80
2018-01-03T11:08:26.010Z,75.00
2018-01-03T11:10:02.623Z,74.90
2018-01-03T11:11:39.109Z,74.60
2018-01-03T11:13:16.092Z,74.00
2018-01-03T11:14:52.736Z,76.50
2018-01-03T11:16:29.593Z,76.40
2018-01-03T11:18:06.896Z,76.00
2018-01-03T11:19:44.143Z,75.90
2018-01-03T11:21:21.357Z,77.20
2018-01-03T11:22:57.912Z,80.20
2018-01-03T11:24:34.802Z,81.10
2018-01-03T11:26:12.160Z,84.90
2018-01-03T11:27:50.330Z,84.00
2018-01-03T11:29:26.953Z,84.10
2018-01-03T11:31:04.492Z,84.20
2018-01-03T11:32:41.355Z,84.70
2018-01-03T11:34:18.209Z,84.30
2018-01-03T11:35:56.444Z,86.60
2018-01-03T11:37:35.808Z,86.60
2018-01-03T11:39:14.517Z,85.20
2018-01-03T11:40:51.566Z,85.50
2018-01-03T11:42:28.444Z,87.10
2018-01-03T11:44:05.143Z,85.80
2018-01-03T11:45:42.122Z,84.20
2018-01-03T11:47:18.826Z,85.30
2018-01-03T11:48:57.799Z,85.00
2018-01-03T11:50:34.483Z,85.90
2018-01-03T11:52:11.113Z,83.40
2018-01-03T11:53:48.496Z,84.70
2018-01-03T11:55:26.378Z,84.90
2018-01-03T11:57:04.033Z,84.20
2018-01-03T11:58:40.850Z,84.10
2018-01-03T12:00:20.540Z,83.70
2018-01-03T12:01:57.488Z,85.00
2018-01-03T12:03:34.889Z,86.40
2018-01-03T12:05:11.439Z,86.40
2018-01-03T12:06:48.887Z,88.90
2018-01-03T12:08:28.391Z,88.90
2018-01-03T12:10:05.077Z,88.30
2018-01-03T12:11:44.648Z,90.00
2018-01-03T12:13:21.768Z,90.60
2018-01-03T12:14:59.700Z,90.50
2018-01-03T12:16:40.622Z,90.50
2018-01-03T12:18:18.956Z,91.00
2018-01-03T12:19:56.586Z,91.10
2018-01-03T12:21:33.612Z,91.10
2018-01-03T12:23:10.974Z,91.00
2018-01-03T12:24:47.584Z,91.00
2018-01-03T12:26:24.866Z,90.30
2018-01-03T12:28:02.819Z,89.80
2018-01-03T12:29:39.417Z,89.50
2018-01-03T12:31:17.337Z,90.00
2018-01-03T12:32:54.402Z,87.80
2018-01-03T12:34:31.571Z,89.40
2018-01-03T12:36:08.984Z,88.80
2018-01-03T12:37:45.968Z,88.80
2018-01-03T12:39:22.758Z,85.70
2018-01-03T12:40:59.910Z,86.60
2018-01-03T12:42:36.547Z,86.20
2018-01-03T12:44:13.938Z,87.40
2018-01-03T12:45:51.837Z,87.10
2018-01-03T12:47:30.490Z,88.70
2018-01-03T12:49:08.179Z,88.80
2018-01-03T12:50:44.948Z,88.60
2018-01-03T12:52:21.570Z,87.70
2018-01-03T12:53:58.433Z,87.80
2018-01-03T12:55:35.079Z,87.60
2018-01-03T12:57:12.447Z,87.80
2018-01-03T12:58:49.150Z,87.80
2018-01-03T13:00:28.363Z,87.40
2018-01-03T13:02:06.616Z,87.50
2018-01-03T13:03:43.317Z,87.40
2018-01-03T13:05:19.904Z,87.30
2018-01-03T13:06:57.185Z,88.10
2018-01-03T13:08:34.014Z,89.40
2018-01-03T13:10:10.715Z,90.10
2018-01-03T13:11:47.404Z,89.60
2018-01-03T13:13:30.777Z,88.90
2018-01-03T13:15:07.453Z,88.90
2018-01-03T13:16:44.407Z,88.20
2018-01-03T13:18:21.690Z,89.20
2018-01-03T13:19:58.844Z,89.20
2018-01-03T13:21:35.609Z,90.00
2018-01-03T13:23:12.264Z,90.30
2018-01-03T13:24:48.864Z,90.00
2018-01-03T13:26:25.903Z,90.00
2018-01-03T13:28:02.532Z,90.30
2018-01-03T13:29:39.933Z,88.20
2018-01-03T13:31:20.217Z,88.20
2018-01-03T13:32:57.452Z,88.40
2018-01-03T13:34:33.972Z,87.40
2018-01-03T13:36:10.802Z,86.80
2018-01-03T13:37:49.499Z,87.20
2018-01-03T13:39:26.565Z,88.50
2018-01-03T13:41:03.158Z,89.70
2018-01-03T13:42:40.749Z,91.00
2018-01-03T13:44:17.922Z,91.00
2018-01-03T13:45:56.034Z,92.10
2018-01-03T13:47:32.662Z,92.10
2018-01-03T13:49:09.583Z,91.80
2018-01-03T13:50:46.290Z,92.20
2018-01-03T13:52:24.067Z,91.60
2018-01-03T13:54:00.797Z,91.30
2018-01-03T13:55:37.554Z,91.10
2018-01-03T13:57:14.622Z,90.60
2018-01-03T13:58:51.938Z,90.50
2018-01-03T14:00:30.244Z,90.50
2018-01-03T14:02:06.980Z,89.10
2018-01-03T14:03:44.508Z,87.20
2018-01-03T14:05:21.240Z,85.80
2018-01-03T14:06:59.146Z,85.40
2018-01-03T14:08:39.753Z,85.40
2018-01-03T14:10:18.435Z,84.60
2018-01-03T14:11:55.146Z,84.60
2018-01-03T14:13:33.524Z,83.40
2018-01-03T14:15:10.346Z,83.40
2018-01-03T14:16:54.181Z,84.50
2018-01-03T14:18:31.732Z,84.30
2018-01-03T14:20:08.577Z,84.50
2018-01-03T14:21:45.551Z,83.90
2018-01-03T14:23:25.614Z,84.70
2018-01-03T14:25:02.617Z,85.40
2018-01-03T14:26:39.398Z,83.50
2018-01-03T14:28:16.206Z,83.20
2018-01-03T14:29:57.719Z,83.50
2018-01-03T14:31:34.635Z,83.90
2018-01-03T14:33:11.620Z,83.90
2018-01-03T14:34:48.596Z,84.30
2018-01-03T14:36:27.943Z,84.40
2018-01-03T14:38:05.643Z,84.30
2018-01-03T14:39:42.556Z,84.30
2018-01-03T14:41:19.998Z,84.00
2018-01-03T14:42:57.050Z,84.40
2018-01-03T14:44:33.925Z,84.50
2018-01-03T14:46:11.229Z,85.20
2018-01-03T14:47:48.814Z,86.90
2018-01-03T14:49:26.585Z,87.30
2018-01-03T14:51:03.359Z,87.30
2018-01-03T14:52:40.462Z,89.00
2018-01-03T14:54:18.276Z,88.60
2018-01-03T14:55:56.774Z,88.40
2018-01-03T14:57:33.890Z,89.00
2018-01-03T14:59:11.856Z,88.00
2018-01-03T15:00:53.531Z,87.10
2018-01-03T15:02:31.376Z,85.90
2018-01-03T15:04:09.964Z,86.70
2018-01-03T15:05:50.021Z,86.00
2018-01-03T15:07:31.107Z,85.40
2018-01-03T15:09:10.465Z,84.50
2018-01-03T15:10:48.969Z,84.40
2018-01-03T15:12:32.361Z,86.30
2018-01-03T15:14:09.159Z,86.20
2018-01-03T15:15:46.617Z,85.30
2018-01-03T15:17:23.288Z,85.70
2018-01-03T15:19:01.152Z,87.30
2018-01-03T15:20:38.129Z,86.90
2018-01-03T15:22:15.475Z,86.50
2018-01-03T15:23:55.784Z,89.30
2018-01-03T15:25:33.676Z,89.70
2018-01-03T15:27:10.693Z,89.10
2018-01-03T15:28:50.125Z,89.80
2018-01-03T15:30:31.216Z,90.30
2018-01-03T15:32:10.895Z,90.10
2018-01-03T15:33:48.511Z,90.10
2018-01-03T15:35:25.777Z,90.10
2018-01-03T15:37:04.543Z,90.40
2018-01-03T15:38:41.391Z,90.70
2018-01-03T15:40:19.516Z,90.70
2018-01-03T15:41:57.785Z,91.30
2018-01-03T15:45:13.089Z,91.00
2018-01-03T15:46:50.801Z,90.10
2018-01-03T15:48:27.944Z,89.30
2018-01-03T15:50:05.445Z,90.80
2018-01-03T15:51:42.173Z,90.80
2018-01-03T15:53:18.918Z,90.10
2018-01-03T15:54:56.380Z,88.50
2018-01-03T15:56:39.696Z,88.00
2018-01-03T15:58:18.657Z,89.40
2018-01-03T15:59:55.985Z,89.80
2018-01-03T16:01:34.568Z,90.10
2018-01-03T16:03:13.410Z,89.20
2018-01-03T16:04:51.540Z,87.30
2018-01-03T16:06:28.665Z,88.40
2018-01-03T16:08:09.564Z,86.80
2018-01-03T16:09:49.782Z,86.40
2018-01-03T16:11:28.089Z,86.90
2018-01-03T16:13:04.870Z,86.50
2018-01-03T16:14:45.709Z,85.40
2018-01-03T16:16:28.844Z,85.60
2018-01-03T16:18:06.478Z,86.00
2018-01-03T16:19:45.366Z,87.20
2018-01-03T16:21:23.421Z,87.50
2018-01-03T16:23:01.049Z,87.10
2018-01-03T16:24:41.337Z,86.70
2018-01-03T16:26:18.768Z,85.90
2018-01-03T16:27:55.988Z,85.80
2018-01-03T16:29:32.789Z,86.40
2018-01-03T16:31:09.780Z,88.30
2018-01-03T16:32:46.885Z,88.50
2018-01-03T16:34:25.218Z,88.30
2018-01-03T16:36:03.665Z,87.50
2018-01-03T16:37:42.250Z,89.20
2018-01-03T16:39:20.986Z,90.00
2018-01-03T16:41:00.862Z,89.60
2018-01-03T16:42:39.835Z,87.80
2018-01-03T16:44:17.267Z,89.10
2018-01-03T16:45:56.101Z,90.00
2018-01-03T16:47:35.230Z,90.30
2018-01-03T16:49:17.087Z,90.30
2018-01-03T16:50:55.119Z,90.50
2018-01-03T16:52:38.827Z,91.20
2018-01-03T16:54:16.374Z,92.40
2018-01-03T16:55:54.696Z,94.50
2018-01-03T16:57:32.608Z,94.50
2018-01-03T16:59:10.593Z,95.50
2018-01-03T17:00:49.034Z,95.50
2018-01-03T17:02:25.825Z,94.80
2018-01-03T17:04:02.611Z,95.30
2018-01-03T17:05:40.195Z,95.20
2018-01-03T17:07:20.693Z,94.80
2018-01-03T17:09:00.066Z,94.50
2018-01-03T17:10:39.034Z,93.90
2018-01-03T17:12:18.933Z,93.80
2018-01-03T17:13:56.135Z,93.80
2018-01-03T17:15:35.331Z,93.30
2018-01-03T17:17:14.142Z,93.30
2018-01-03T17:18:53.281Z,93.30
2018-01-03T17:20:32.787Z,94.00
2018-01-03T17:22:11.646Z,94.00
2018-01-03T17:23:52.127Z,94.80
2018-01-03T17:25:31.621Z,94.80
2018-01-03T17:27:09.957Z,93.80
2018-01-03T17:28:49.644Z,93.80
2018-01-03T17:30:33.293Z,94.30
2018-01-03T17:32:13.501Z,93.20
2018-01-03T17:35:36.277Z,92.40
2018-01-03T17:37:17.508Z,92.10
2018-01-03T17:38:55.188Z,91.80
2018-01-03T17:40:33.585Z,91.20
2018-01-03T17:42:13.841Z,91.20
2018-01-03T17:43:52.737Z,91.40
2018-01-03T17:45:40.852Z,91.30
2018-01-03T17:47:19.389Z,91.00
2018-01-03T17:48:57.461Z,91.60
2018-01-03T17:50:36.438Z,91.80
2018-01-03T17:52:14.798Z,91.30
2018-01-03T17:53:52.725Z,90.70
2018-01-03T17:58:25.794Z,90.20
2018-01-03T18:00:04.694Z,91.00
2018-01-03T18:01:42.916Z,91.00
2018-01-03T18:03:19.989Z,91.50
2018-01-03T18:05:00.181Z,91.40
2018-01-03T18:06:42.608Z,90.50
2018-01-03T18:08:22.904Z,90.20
2018-01-03T18:10:00.039Z,90.50
2018-01-03T18:11:39.777Z,90.20
2018-01-03T18:13:19.355Z,89.80
2018-01-03T18:14:58.083Z,89.80
2018-01-03T18:16:39.892Z,88.00
2018-01-03T18:18:21.621Z,87.80
2018-01-03T18:20:00.909Z,88.10
2018-01-03T18:21:39.642Z,88.40
2018-01-03T18:23:19.010Z,88.20
2018-01-03T18:24:56.939Z,88.20
2018-01-03T18:26:35.511Z,88.90
2018-01-03T18:28:16.872Z,89.20
2018-01-03T18:30:03.755Z,89.20
2018-01-03T18:31:47.942Z,89.50
2018-01-03T18:33:31.914Z,88.10
2018-01-03T18:35:16.941Z,88.00
2018-01-03T18:37:02.111Z,88.30
2018-01-03T18:38:47.406Z,89.80
2018-01-03T18:40:29.426Z,90.70
2018-01-03T18:42:11.316Z,90.40
2018-01-03T18:43:59.763Z,89.70
2018-01-03T18:45:42.010Z,90.10
2018-01-03T18:47:20.058Z,90.00
2018-01-03T18:48:58.297Z,88.60
2018-01-03T18:50:35.302Z,88.70
2018-01-03T18:52:13.055Z,88.10
2018-01-03T18:53:54.948Z,85.40
2018-01-03T18:55:35.787Z,85.60
2018-01-03T18:57:13.141Z,84.50
2018-01-03T18:58:50.881Z,85.70
2018-01-03T19:00:33.260Z,87.30
2018-01-03T19:02:12.866Z,87.10
2018-01-03T19:03:52.407Z,88.20
2018-01-03T19:05:30.278Z,86.10
2018-01-03T19:07:09.888Z,83.50
2018-01-03T19:08:48.709Z,84.00
2018-01-03T19:12:04.519Z,83.20
2018-01-03T19:13:44.656Z,83.20
2018-01-03T19:15:22.242Z,83.10
2018-01-03T19:16:59.142Z,83.00
2018-01-03T19:18:36.707Z,83.10
2018-01-03T19:20:14.289Z,83.10
2018-01-03T19:21:51.859Z,85.00
2018-01-03T19:23:28.551Z,85.70
2018-01-03T19:25:05.690Z,85.50
2018-01-03T19:26:42.648Z,86.10
2018-01-03T19:28:20.642Z,85.70
2018-01-03T19:29:57.269Z,88.40
2018-01-03T19:31:33.918Z,90.10
2018-01-03T19:33:10.782Z,90.80
2018-01-03T19:34:48.817Z,92.50
2018-01-03T19:36:25.900Z,92.50
2018-01-03T19:38:03.481Z,93.70
2018-01-03T19:39:40.935Z,93.90
2018-01-03T19:41:18.929Z,94.20
2018-01-03T19:42:56.313Z,94.40
2018-01-03T19:44:33.889Z,94.20
2018-01-03T19:46:10.632Z,94.20
2018-01-03T19:47:47.383Z,94.50
2018-01-03T19:49:25.221Z,94.30
2018-01-03T19:51:02.016Z,95.00
2018-01-03T19:52:39.877Z,95.30
2018-01-03T19:54:16.804Z,95.30
2018-01-03T19:55:55.806Z,95.40
2018-01-03T19:57:32.503Z,95.40
2018-01-03T19:59:09.464Z,95.00
2018-01-03T20:00:46.268Z,94.70
2018-01-03T20:02:22.853Z,95.30
2018-01-03T20:03:59.556Z,94.10
2018-01-03T20:05:37.534Z,93.80
2018-01-03T20:07:15.492Z,93.80
2018-01-03T20:08:52.935Z,94.00
2018-01-03T20:10:29.733Z,95.00
2018-01-03T20:12:08.433Z,95.90
2018-01-03T20:13:45.595Z,95.70
2018-01-03T20:15:23.875Z,95.30
2018-01-03T20:17:02.358Z,94.60
2018-01-03T20:18:40.044Z,94.50
2018-01-03T20:20:16.679Z,94.50
2018-01-03T20:21:54.134Z,94.20
2018-01-03T20:23:30.853Z,94.20
2018-01-03T20:25:07.827Z,94.70
2018-01-03T20:26:47.113Z,93.70
2018-01-03T20:28:27.145Z,93.70
2018-01-03T20:30:05.218Z,93.30
2018-01-03T20:31:45.204Z,92.50
2018-01-03T20:33:21.968Z,92.50
2018-01-03T20:35:00.347Z,91.70
2018-01-03T20:36:37.989Z,91.50
2018-01-03T20:38:16.075Z,90.20
2018-01-03T20:39:52.704Z,90.20
2018-01-03T20:41:29.349Z,90.60
2018-01-03T20:43:06.827Z,90.60
2018-01-03T20:46:23.235Z,90.40
2018-01-03T20:48:01.393Z,90.90
2018-01-03T20:49:38.699Z,91.80
2018-01-03T20:51:21.828Z,91.80
2018-01-03T20:53:03.485Z,91.60
2018-01-03T20:54:49.814Z,91.60
2018-01-03T20:56:27.094Z,91.80
2018-01-03T20:58:04.843Z,91.30
2018-01-03T20:59:42.614Z,91.20
2018-01-03T21:01:19.237Z,91.70
2018-01-03T21:02:55.798Z,92.30
2018-01-03T21:04:33.132Z,92.20
2018-01-03T21:06:11.212Z,91.10
2018-01-03T21:07:50.580Z,91.70
2018-01-03T21:09:28.572Z,90.80